sensor_id;sensor_type;location;lat;lon;timestamp;P1;durP1;ratioP1;P2;durP2;ratioP2
51981;SDS011;37998;53.416;6.730;2024-01-11T00:00:31;32.88;;;23.73;;
51981;SDS011;37998;53.416;6.730;2024-01-11T00:02:57;36.92;;;24.20;;
51981;SDS011;37998;53.416;6.730;2024-01-11T00:05:23;35.55;;;23.15;;
51981;SDS011;37998;53.416;6.730;2024-01-11T00:07:49;34.10;;;23.13;;
51981;SDS011;37998;53.416;6.730;2024-01-11T00:10:15;31.98;;;22.10;;
51981;SDS011;37998;53.416;6.730;2024-01-11T00:12:41;31.00;;;22.80;;
51981;SDS011;37998;53.416;6.730;2024-01-11T00:15:07;40.00;;;23.80;;
51981;SDS011;37998;53.416;6.730;2024-01-11T00:17:33;33.63;;;22.90;;
51981;SDS011;37998;53.416;6.730;2024-01-11T00:20:00;34.97;;;22.88;;
51981;SDS011;37998;53.416;6.730;2024-01-11T00:22:26;35.60;;;24.35;;
51981;SDS011;37998;53.416;6.730;2024-01-11T00:24:52;35.15;;;23.10;;
51981;SDS011;37998;53.416;6.730;2024-01-11T00:27:18;36.80;;;22.70;;
51981;SDS011;37998;53.416;6.730;2024-01-11T00:29:44;36.08;;;22.77;;
51981;SDS011;37998;53.416;6.730;2024-01-11T00:32:10;35.42;;;23.13;;
51981;SDS011;37998;53.416;6.730;2024-01-11T00:34:36;32.40;;;22.55;;
51981;SDS011;37998;53.416;6.730;2024-01-11T00:37:02;33.55;;;22.40;;
51981;SDS011;37998;53.416;6.730;2024-01-11T00:39:28;31.08;;;21.38;;
51981;SDS011;37998;53.416;6.730;2024-01-11T00:41:55;34.38;;;23.02;;
51981;SDS011;37998;53.416;6.730;2024-01-11T00:44:20;33.95;;;21.42;;
51981;SDS011;37998;53.416;6.730;2024-01-11T00:46:46;33.63;;;22.20;;
51981;SDS011;37998;53.416;6.730;2024-01-11T00:49:12;32.65;;;22.55;;
51981;SDS011;37998;53.416;6.730;2024-01-11T00:51:38;35.42;;;23.67;;
51981;SDS011;37998;53.416;6.730;2024-01-11T00:54:04;28.98;;;20.30;;
51981;SDS011;37998;53.416;6.730;2024-01-11T00:56:30;31.42;;;21.42;;
51981;SDS011;37998;53.416;6.730;2024-01-11T00:58:56;31.30;;;21.20;;
51981;SDS011;37998;53.416;6.730;2024-01-11T01:01:22;32.95;;;22.50;;
51981;SDS011;37998;53.416;6.730;2024-01-11T01:03:48;30.75;;;21.90;;
51981;SDS011;37998;53.416;6.730;2024-01-11T01:06:14;32.38;;;22.42;;
51981;SDS011;37998;53.416;6.730;2024-01-11T01:08:40;29.40;;;20.38;;
51981;SDS011;37998;53.416;6.730;2024-01-11T01:11:05;32.88;;;22.48;;
51981;SDS011;37998;53.416;6.730;2024-01-11T01:13:35;30.35;;;21.83;;
51981;SDS011;37998;53.416;6.730;2024-01-11T01:16:01;32.25;;;21.55;;
51981;SDS011;37998;53.416;6.730;2024-01-11T01:18:27;38.50;;;23.65;;
51981;SDS011;37998;53.416;6.730;2024-01-11T01:20:56;35.15;;;22.20;;
51981;SDS011;37998;53.416;6.730;2024-01-11T01:23:21;29.85;;;20.92;;
51981;SDS011;37998;53.416;6.730;2024-01-11T01:25:48;34.67;;;23.40;;
51981;SDS011;37998;53.416;6.730;2024-01-11T01:28:14;34.67;;;22.35;;
51981;SDS011;37998;53.416;6.730;2024-01-11T01:30:40;33.80;;;23.02;;
51981;SDS011;37998;53.416;6.730;2024-01-11T01:33:05;33.60;;;22.33;;
51981;SDS011;37998;53.416;6.730;2024-01-11T01:35:31;35.53;;;22.38;;
51981;SDS011;37998;53.416;6.730;2024-01-11T01:37:58;35.55;;;23.00;;
51981;SDS011;37998;53.416;6.730;2024-01-11T01:40:24;35.30;;;23.50;;
51981;SDS011;37998;53.416;6.730;2024-01-11T01:42:50;37.63;;;23.63;;
51981;SDS011;37998;53.416;6.730;2024-01-11T01:47:49;33.55;;;22.95;;
51981;SDS011;37998;53.416;6.730;2024-01-11T01:50:15;33.72;;;21.95;;
51981;SDS011;37998;53.416;6.730;2024-01-11T01:52:41;34.25;;;23.17;;
51981;SDS011;37998;53.416;6.730;2024-01-11T01:55:09;38.83;;;24.80;;
51981;SDS011;37998;53.416;6.730;2024-01-11T01:57:37;37.35;;;23.70;;
51981;SDS011;37998;53.416;6.730;2024-01-11T02:00:05;35.20;;;23.58;;
51981;SDS011;37998;53.416;6.730;2024-01-11T02:02:45;36.60;;;24.30;;
51981;SDS011;37998;53.416;6.730;2024-01-11T02:05:15;36.47;;;23.58;;
51981;SDS011;37998;53.416;6.730;2024-01-11T02:07:42;34.92;;;23.45;;
51981;SDS011;37998;53.416;6.730;2024-01-11T02:10:09;41.20;;;25.67;;
51981;SDS011;37998;53.416;6.730;2024-01-11T02:12:35;35.80;;;24.23;;
51981;SDS011;37998;53.416;6.730;2024-01-11T02:15:03;40.03;;;25.40;;
51981;SDS011;37998;53.416;6.730;2024-01-11T02:17:30;36.10;;;23.58;;
51981;SDS011;37998;53.416;6.730;2024-01-11T02:19:57;36.45;;;23.15;;
51981;SDS011;37998;53.416;6.730;2024-01-11T02:22:31;39.40;;;25.10;;
51981;SDS011;37998;53.416;6.730;2024-01-11T02:25:00;37.05;;;23.27;;
51981;SDS011;37998;53.416;6.730;2024-01-11T02:27:26;38.45;;;25.05;;
51981;SDS011;37998;53.416;6.730;2024-01-11T02:29:52;40.88;;;25.02;;
51981;SDS011;37998;53.416;6.730;2024-01-11T02:32:18;41.05;;;25.33;;
51981;SDS011;37998;53.416;6.730;2024-01-11T02:34:44;42.53;;;26.98;;
51981;SDS011;37998;53.416;6.730;2024-01-11T02:37:10;41.40;;;26.45;;
51981;SDS011;37998;53.416;6.730;2024-01-11T02:39:36;42.70;;;26.45;;
51981;SDS011;37998;53.416;6.730;2024-01-11T02:42:03;40.38;;;26.70;;
51981;SDS011;37998;53.416;6.730;2024-01-11T02:44:29;41.42;;;26.10;;
51981;SDS011;37998;53.416;6.730;2024-01-11T02:46:54;44.25;;;27.33;;
51981;SDS011;37998;53.416;6.730;2024-01-11T02:49:20;45.75;;;28.42;;
51981;SDS011;37998;53.416;6.730;2024-01-11T02:51:46;46.63;;;27.38;;
51981;SDS011;37998;53.416;6.730;2024-01-11T02:54:12;41.20;;;27.25;;
51981;SDS011;37998;53.416;6.730;2024-01-11T02:56:38;43.53;;;28.08;;
51981;SDS011;37998;53.416;6.730;2024-01-11T02:59:04;39.35;;;26.25;;
51981;SDS011;37998;53.416;6.730;2024-01-11T03:01:30;43.00;;;27.73;;
51981;SDS011;37998;53.416;6.730;2024-01-11T03:03:56;43.90;;;27.45;;
51981;SDS011;37998;53.416;6.730;2024-01-11T03:06:22;47.20;;;29.10;;
51981;SDS011;37998;53.416;6.730;2024-01-11T03:08:48;47.13;;;29.25;;
51981;SDS011;37998;53.416;6.730;2024-01-11T03:11:14;47.15;;;27.65;;
51981;SDS011;37998;53.416;6.730;2024-01-11T03:13:41;43.40;;;27.98;;
51981;SDS011;37998;53.416;6.730;2024-01-11T03:16:08;43.47;;;27.60;;
51981;SDS011;37998;53.416;6.730;2024-01-11T03:18:33;45.63;;;28.58;;
51981;SDS011;37998;53.416;6.730;2024-01-11T03:20:59;45.40;;;28.00;;
51981;SDS011;37998;53.416;6.730;2024-01-11T03:23:25;43.28;;;27.83;;
51981;SDS011;37998;53.416;6.730;2024-01-11T03:25:51;45.15;;;29.13;;
51981;SDS011;37998;53.416;6.730;2024-01-11T03:28:17;43.75;;;27.92;;
51981;SDS011;37998;53.416;6.730;2024-01-11T03:30:43;47.90;;;29.50;;
51981;SDS011;37998;53.416;6.730;2024-01-11T03:33:09;47.72;;;29.85;;
51981;SDS011;37998;53.416;6.730;2024-01-11T03:35:34;50.35;;;28.88;;
51981;SDS011;37998;53.416;6.730;2024-01-11T03:38:00;47.70;;;30.60;;
51981;SDS011;37998;53.416;6.730;2024-01-11T03:40:26;47.00;;;29.77;;
51981;SDS011;37998;53.416;6.730;2024-01-11T03:42:52;47.25;;;28.77;;
51981;SDS011;37998;53.416;6.730;2024-01-11T03:45:18;48.58;;;30.58;;
51981;SDS011;37998;53.416;6.730;2024-01-11T03:47:44;51.70;;;30.80;;
51981;SDS011;37998;53.416;6.730;2024-01-11T03:50:10;48.50;;;29.48;;
51981;SDS011;37998;53.416;6.730;2024-01-11T03:52:36;50.90;;;30.55;;
51981;SDS011;37998;53.416;6.730;2024-01-11T03:55:02;50.45;;;30.23;;
51981;SDS011;37998;53.416;6.730;2024-01-11T03:57:28;44.85;;;29.38;;
51981;SDS011;37998;53.416;6.730;2024-01-11T03:59:54;49.78;;;30.08;;
51981;SDS011;37998;53.416;6.730;2024-01-11T04:02:20;48.17;;;31.02;;
51981;SDS011;37998;53.416;6.730;2024-01-11T04:04:46;47.30;;;30.27;;
51981;SDS011;37998;53.416;6.730;2024-01-11T04:07:12;51.53;;;31.33;;
51981;SDS011;37998;53.416;6.730;2024-01-11T04:09:38;48.83;;;29.65;;
51981;SDS011;37998;53.416;6.730;2024-01-11T04:12:04;50.60;;;29.95;;
51981;SDS011;37998;53.416;6.730;2024-01-11T04:14:31;50.15;;;31.17;;
51981;SDS011;37998;53.416;6.730;2024-01-11T04:16:57;49.25;;;30.58;;
51981;SDS011;37998;53.416;6.730;2024-01-11T04:19:22;49.50;;;29.88;;
51981;SDS011;37998;53.416;6.730;2024-01-11T04:21:48;51.55;;;30.58;;
51981;SDS011;37998;53.416;6.730;2024-01-11T04:24:14;49.78;;;30.83;;
51981;SDS011;37998;53.416;6.730;2024-01-11T04:26:40;49.72;;;30.55;;
51981;SDS011;37998;53.416;6.730;2024-01-11T04:29:06;52.42;;;31.88;;
51981;SDS011;37998;53.416;6.730;2024-01-11T04:31:32;48.45;;;30.42;;
51981;SDS011;37998;53.416;6.730;2024-01-11T04:33:58;52.05;;;32.85;;
51981;SDS011;37998;53.416;6.730;2024-01-11T04:36:24;51.35;;;31.52;;
51981;SDS011;37998;53.416;6.730;2024-01-11T04:38:50;53.35;;;32.33;;
51981;SDS011;37998;53.416;6.730;2024-01-11T04:41:16;51.28;;;31.00;;
51981;SDS011;37998;53.416;6.730;2024-01-11T04:43:43;51.45;;;31.70;;
51981;SDS011;37998;53.416;6.730;2024-01-11T04:46:13;49.70;;;30.30;;
51981;SDS011;37998;53.416;6.730;2024-01-11T04:48:40;50.00;;;29.92;;
51981;SDS011;37998;53.416;6.730;2024-01-11T04:51:06;60.58;;;31.00;;
51981;SDS011;37998;53.416;6.730;2024-01-11T04:53:32;52.50;;;31.48;;
51981;SDS011;37998;53.416;6.730;2024-01-11T04:55:57;50.92;;;31.60;;
51981;SDS011;37998;53.416;6.730;2024-01-11T04:58:23;47.85;;;29.83;;
51981;SDS011;37998;53.416;6.730;2024-01-11T05:00:49;49.42;;;30.65;;
51981;SDS011;37998;53.416;6.730;2024-01-11T05:03:15;47.80;;;29.42;;
51981;SDS011;37998;53.416;6.730;2024-01-11T05:05:41;47.40;;;29.15;;
51981;SDS011;37998;53.416;6.730;2024-01-11T05:08:07;45.17;;;28.55;;
51981;SDS011;37998;53.416;6.730;2024-01-11T05:10:33;48.60;;;31.08;;
51981;SDS011;37998;53.416;6.730;2024-01-11T05:13:01;46.67;;;28.50;;
51981;SDS011;37998;53.416;6.730;2024-01-11T05:15:27;45.90;;;28.38;;
51981;SDS011;37998;53.416;6.730;2024-01-11T05:17:54;44.83;;;29.02;;
51981;SDS011;37998;53.416;6.730;2024-01-11T05:20:21;44.85;;;28.33;;
51981;SDS011;37998;53.416;6.730;2024-01-11T05:22:47;46.55;;;29.25;;
51981;SDS011;37998;53.416;6.730;2024-01-11T05:25:13;45.45;;;29.02;;
51981;SDS011;37998;53.416;6.730;2024-01-11T05:27:39;42.65;;;27.23;;
51981;SDS011;37998;53.416;6.730;2024-01-11T05:30:05;44.72;;;27.80;;
51981;SDS011;37998;53.416;6.730;2024-01-11T05:32:32;43.92;;;28.70;;
51981;SDS011;37998;53.416;6.730;2024-01-11T05:34:57;45.33;;;28.67;;
51981;SDS011;37998;53.416;6.730;2024-01-11T05:37:23;45.05;;;28.80;;
51981;SDS011;37998;53.416;6.730;2024-01-11T05:39:49;45.17;;;27.20;;
51981;SDS011;37998;53.416;6.730;2024-01-11T05:42:15;40.75;;;26.52;;
51981;SDS011;37998;53.416;6.730;2024-01-11T05:44:41;41.28;;;27.33;;
51981;SDS011;37998;53.416;6.730;2024-01-11T05:47:07;41.30;;;25.70;;
51981;SDS011;37998;53.416;6.730;2024-01-11T05:49:33;46.85;;;30.58;;
51981;SDS011;37998;53.416;6.730;2024-01-11T05:51:59;41.83;;;26.02;;
51981;SDS011;37998;53.416;6.730;2024-01-11T05:54:24;41.03;;;26.02;;
51981;SDS011;37998;53.416;6.730;2024-01-11T05:56:52;44.08;;;26.30;;
51981;SDS011;37998;53.416;6.730;2024-01-11T05:59:21;38.85;;;24.33;;
51981;SDS011;37998;53.416;6.730;2024-01-11T06:01:47;41.10;;;25.52;;
51981;SDS011;37998;53.416;6.730;2024-01-11T06:04:13;44.33;;;27.60;;
51981;SDS011;37998;53.416;6.730;2024-01-11T06:06:39;39.63;;;25.45;;
51981;SDS011;37998;53.416;6.730;2024-01-11T06:09:06;38.97;;;24.92;;
51981;SDS011;37998;53.416;6.730;2024-01-11T06:11:31;40.35;;;24.95;;
51981;SDS011;37998;53.416;6.730;2024-01-11T06:13:57;43.58;;;27.25;;
51981;SDS011;37998;53.416;6.730;2024-01-11T06:16:23;40.38;;;25.65;;
51981;SDS011;37998;53.416;6.730;2024-01-11T06:18:50;39.45;;;25.90;;
51981;SDS011;37998;53.416;6.730;2024-01-11T06:21:16;42.60;;;25.15;;
51981;SDS011;37998;53.416;6.730;2024-01-11T06:23:45;35.72;;;23.65;;
51981;SDS011;37998;53.416;6.730;2024-01-11T06:26:11;36.90;;;23.63;;
51981;SDS011;37998;53.416;6.730;2024-01-11T06:28:37;37.58;;;24.80;;
51981;SDS011;37998;53.416;6.730;2024-01-11T06:31:02;37.90;;;24.70;;
51981;SDS011;37998;53.416;6.730;2024-01-11T06:33:28;37.08;;;23.30;;
51981;SDS011;37998;53.416;6.730;2024-01-11T06:35:54;38.58;;;25.40;;
51981;SDS011;37998;53.416;6.730;2024-01-11T06:38:21;40.92;;;25.40;;
51981;SDS011;37998;53.416;6.730;2024-01-11T06:40:49;37.90;;;24.70;;
51981;SDS011;37998;53.416;6.730;2024-01-11T06:43:15;40.58;;;26.35;;
51981;SDS011;37998;53.416;6.730;2024-01-11T06:45:42;41.78;;;26.17;;
51981;SDS011;37998;53.416;6.730;2024-01-11T06:48:08;38.25;;;26.00;;
51981;SDS011;37998;53.416;6.730;2024-01-11T06:50:34;39.30;;;26.38;;
51981;SDS011;37998;53.416;6.730;2024-01-11T06:53:00;40.45;;;25.90;;
51981;SDS011;37998;53.416;6.730;2024-01-11T06:55:27;43.38;;;26.95;;
51981;SDS011;37998;53.416;6.730;2024-01-11T06:57:53;40.42;;;25.73;;
51981;SDS011;37998;53.416;6.730;2024-01-11T07:00:19;38.67;;;25.20;;
51981;SDS011;37998;53.416;6.730;2024-01-11T07:02:45;39.08;;;25.25;;
51981;SDS011;37998;53.416;6.730;2024-01-11T07:05:10;41.58;;;26.05;;
51981;SDS011;37998;53.416;6.730;2024-01-11T07:07:37;36.78;;;25.17;;
51981;SDS011;37998;53.416;6.730;2024-01-11T07:10:03;40.65;;;26.05;;
51981;SDS011;37998;53.416;6.730;2024-01-11T07:12:31;40.72;;;27.70;;
51981;SDS011;37998;53.416;6.730;2024-01-11T07:14:57;42.47;;;26.90;;
51981;SDS011;37998;53.416;6.730;2024-01-11T07:17:24;43.90;;;25.92;;
51981;SDS011;37998;53.416;6.730;2024-01-11T07:19:50;46.88;;;27.73;;
51981;SDS011;37998;53.416;6.730;2024-01-11T07:22:16;43.85;;;26.30;;
51981;SDS011;37998;53.416;6.730;2024-01-11T07:24:42;43.22;;;24.75;;
51981;SDS011;37998;53.416;6.730;2024-01-11T07:27:07;38.08;;;24.33;;
51981;SDS011;37998;53.416;6.730;2024-01-11T07:29:34;39.55;;;25.90;;
51981;SDS011;37998;53.416;6.730;2024-01-11T07:32:00;42.83;;;27.27;;
51981;SDS011;37998;53.416;6.730;2024-01-11T07:34:26;42.55;;;28.73;;
51981;SDS011;37998;53.416;6.730;2024-01-11T07:36:52;43.55;;;28.80;;
51981;SDS011;37998;53.416;6.730;2024-01-11T07:39:19;42.55;;;26.55;;
51981;SDS011;37998;53.416;6.730;2024-01-11T07:41:45;43.55;;;28.00;;
51981;SDS011;37998;53.416;6.730;2024-01-11T07:44:11;44.42;;;27.85;;
51981;SDS011;37998;53.416;6.730;2024-01-11T07:46:37;38.78;;;25.52;;
51981;SDS011;37998;53.416;6.730;2024-01-11T07:49:03;42.03;;;26.67;;
51981;SDS011;37998;53.416;6.730;2024-01-11T07:51:30;41.92;;;26.25;;
51981;SDS011;37998;53.416;6.730;2024-01-11T07:53:56;55.78;;;25.75;;
51981;SDS011;37998;53.416;6.730;2024-01-11T07:56:22;37.25;;;23.55;;
51981;SDS011;37998;53.416;6.730;2024-01-11T07:58:48;42.15;;;25.55;;
51981;SDS011;37998;53.416;6.730;2024-01-11T08:01:15;38.58;;;24.25;;
51981;SDS011;37998;53.416;6.730;2024-01-11T08:03:41;39.75;;;25.27;;
51981;SDS011;37998;53.416;6.730;2024-01-11T08:06:09;42.20;;;24.65;;
51981;SDS011;37998;53.416;6.730;2024-01-11T08:08:36;36.35;;;23.98;;
51981;SDS011;37998;53.416;6.730;2024-01-11T08:11:04;38.08;;;24.48;;
51981;SDS011;37998;53.416;6.730;2024-01-11T08:13:32;36.75;;;24.13;;
51981;SDS011;37998;53.416;6.730;2024-01-11T08:16:03;37.47;;;23.75;;
51981;SDS011;37998;53.416;6.730;2024-01-11T08:18:32;33.40;;;21.95;;
51981;SDS011;37998;53.416;6.730;2024-01-11T08:20:58;33.25;;;21.63;;
51981;SDS011;37998;53.416;6.730;2024-01-11T08:23:24;39.60;;;23.42;;
51981;SDS011;37998;53.416;6.730;2024-01-11T08:25:50;33.42;;;20.98;;
51981;SDS011;37998;53.416;6.730;2024-01-11T08:28:18;32.65;;;21.10;;
51981;SDS011;37998;53.416;6.730;2024-01-11T08:30:44;31.88;;;21.33;;
51981;SDS011;37998;53.416;6.730;2024-01-11T08:33:10;37.22;;;22.38;;
51981;SDS011;37998;53.416;6.730;2024-01-11T08:35:35;36.47;;;22.45;;
51981;SDS011;37998;53.416;6.730;2024-01-11T08:38:01;32.03;;;22.55;;
51981;SDS011;37998;53.416;6.730;2024-01-11T08:40:28;35.28;;;23.38;;
51981;SDS011;37998;53.416;6.730;2024-01-11T08:42:54;33.67;;;22.48;;
51981;SDS011;37998;53.416;6.730;2024-01-11T08:45:20;31.92;;;21.40;;
51981;SDS011;37998;53.416;6.730;2024-01-11T08:47:47;30.63;;;20.33;;
51981;SDS011;37998;53.416;6.730;2024-01-11T08:50:13;31.52;;;20.98;;
51981;SDS011;37998;53.416;6.730;2024-01-11T08:52:40;40.63;;;21.27;;
51981;SDS011;37998;53.416;6.730;2024-01-11T08:55:07;34.20;;;20.75;;
51981;SDS011;37998;53.416;6.730;2024-01-11T08:57:33;36.20;;;22.35;;
51981;SDS011;37998;53.416;6.730;2024-01-11T09:00:03;34.70;;;21.08;;
51981;SDS011;37998;53.416;6.730;2024-01-11T09:02:31;35.72;;;21.67;;
51981;SDS011;37998;53.416;6.730;2024-01-11T09:04:57;35.92;;;22.85;;
51981;SDS011;37998;53.416;6.730;2024-01-11T09:07:23;36.28;;;22.90;;
51981;SDS011;37998;53.416;6.730;2024-01-11T09:09:49;33.13;;;21.90;;
51981;SDS011;37998;53.416;6.730;2024-01-11T09:12:15;33.40;;;21.42;;
51981;SDS011;37998;53.416;6.730;2024-01-11T09:14:41;34.50;;;21.77;;
51981;SDS011;37998;53.416;6.730;2024-01-11T09:17:06;33.00;;;22.25;;
51981;SDS011;37998;53.416;6.730;2024-01-11T09:19:33;38.55;;;23.17;;
51981;SDS011;37998;53.416;6.730;2024-01-11T09:21:59;36.95;;;23.80;;
51981;SDS011;37998;53.416;6.730;2024-01-11T09:24:25;36.97;;;22.40;;
51981;SDS011;37998;53.416;6.730;2024-01-11T09:26:51;37.55;;;24.25;;
51981;SDS011;37998;53.416;6.730;2024-01-11T09:29:17;44.55;;;25.27;;
51981;SDS011;37998;53.416;6.730;2024-01-11T09:31:43;38.30;;;24.27;;
51981;SDS011;37998;53.416;6.730;2024-01-11T09:34:09;36.80;;;23.23;;
51981;SDS011;37998;53.416;6.730;2024-01-11T09:36:36;37.42;;;23.77;;
51981;SDS011;37998;53.416;6.730;2024-01-11T09:39:04;33.72;;;22.13;;
51981;SDS011;37998;53.416;6.730;2024-01-11T09:41:31;34.45;;;20.65;;
51981;SDS011;37998;53.416;6.730;2024-01-11T09:43:58;33.30;;;21.75;;
51981;SDS011;37998;53.416;6.730;2024-01-11T09:46:27;32.72;;;20.77;;
51981;SDS011;37998;53.416;6.730;2024-01-11T09:48:53;32.70;;;20.50;;
51981;SDS011;37998;53.416;6.730;2024-01-11T09:51:23;32.33;;;20.73;;
51981;SDS011;37998;53.416;6.730;2024-01-11T09:53:51;36.92;;;22.70;;
51981;SDS011;37998;53.416;6.730;2024-01-11T09:56:21;36.92;;;23.23;;
51981;SDS011;37998;53.416;6.730;2024-01-11T09:58:50;40.22;;;27.13;;
51981;SDS011;37998;53.416;6.730;2024-01-11T10:01:16;43.25;;;28.58;;
51981;SDS011;37998;53.416;6.730;2024-01-11T10:03:43;42.67;;;25.77;;
51981;SDS011;37998;53.416;6.730;2024-01-11T10:06:11;42.05;;;25.85;;
51981;SDS011;37998;53.416;6.730;2024-01-11T10:08:39;41.00;;;25.98;;
51981;SDS011;37998;53.416;6.730;2024-01-11T10:11:05;37.92;;;24.95;;
51981;SDS011;37998;53.416;6.730;2024-01-11T10:13:31;38.03;;;24.55;;
51981;SDS011;37998;53.416;6.730;2024-01-11T10:16:10;38.60;;;23.13;;
51981;SDS011;37998;53.416;6.730;2024-01-11T10:18:41;35.22;;;23.20;;
51981;SDS011;37998;53.416;6.730;2024-01-11T10:21:07;32.50;;;21.58;;
51981;SDS011;37998;53.416;6.730;2024-01-11T10:23:35;33.45;;;22.23;;
51981;SDS011;37998;53.416;6.730;2024-01-11T10:26:01;32.78;;;21.85;;
51981;SDS011;37998;53.416;6.730;2024-01-11T10:28:27;33.13;;;21.67;;
51981;SDS011;37998;53.416;6.730;2024-01-11T10:30:54;29.65;;;19.65;;
51981;SDS011;37998;53.416;6.730;2024-01-11T10:33:21;34.72;;;21.45;;
51981;SDS011;37998;53.416;6.730;2024-01-11T10:35:50;35.67;;;22.10;;
51981;SDS011;37998;53.416;6.730;2024-01-11T10:38:16;33.58;;;22.65;;
51981;SDS011;37998;53.416;6.730;2024-01-11T10:40:43;34.85;;;21.58;;
51981;SDS011;37998;53.416;6.730;2024-01-11T10:43:10;33.40;;;22.20;;
51981;SDS011;37998;53.416;6.730;2024-01-11T10:45:37;35.08;;;23.27;;
51981;SDS011;37998;53.416;6.730;2024-01-11T10:48:13;31.75;;;21.05;;
51981;SDS011;37998;53.416;6.730;2024-01-11T10:53:17;31.95;;;20.50;;
51981;SDS011;37998;53.416;6.730;2024-01-11T10:56:05;35.83;;;22.05;;
51981;SDS011;37998;53.416;6.730;2024-01-11T10:58:34;35.40;;;19.83;;
51981;SDS011;37998;53.416;6.730;2024-01-11T11:01:01;33.03;;;20.70;;
51981;SDS011;37998;53.416;6.730;2024-01-11T11:03:30;30.52;;;19.05;;
51981;SDS011;37998;53.416;6.730;2024-01-11T11:05:57;27.88;;;18.02;;
51981;SDS011;37998;53.416;6.730;2024-01-11T11:08:24;29.17;;;17.88;;
51981;SDS011;37998;53.416;6.730;2024-01-11T11:11:01;29.63;;;18.25;;
51981;SDS011;37998;53.416;6.730;2024-01-11T11:13:30;26.67;;;16.48;;
51981;SDS011;37998;53.416;6.730;2024-01-11T11:15:57;27.45;;;18.27;;
51981;SDS011;37998;53.416;6.730;2024-01-11T11:18:23;27.17;;;17.92;;
51981;SDS011;37998;53.416;6.730;2024-01-11T11:20:50;27.17;;;18.85;;
51981;SDS011;37998;53.416;6.730;2024-01-11T11:23:19;28.00;;;18.58;;
51981;SDS011;37998;53.416;6.730;2024-01-11T11:25:46;34.40;;;19.88;;
51981;SDS011;37998;53.416;6.730;2024-01-11T11:28:13;27.52;;;17.35;;
51981;SDS011;37998;53.416;6.730;2024-01-11T11:30:41;29.90;;;19.20;;
51981;SDS011;37998;53.416;6.730;2024-01-11T11:35:48;29.42;;;20.10;;
51981;SDS011;37998;53.416;6.730;2024-01-11T11:38:22;32.47;;;20.42;;
51981;SDS011;37998;53.416;6.730;2024-01-11T11:40:50;33.92;;;21.02;;
51981;SDS011;37998;53.416;6.730;2024-01-11T11:43:17;29.65;;;21.17;;
51981;SDS011;37998;53.416;6.730;2024-01-11T11:45:48;29.85;;;18.27;;
51981;SDS011;37998;53.416;6.730;2024-01-11T11:51:06;35.80;;;19.60;;
51981;SDS011;37998;53.416;6.730;2024-01-11T11:53:36;30.27;;;18.70;;
51981;SDS011;37998;53.416;6.730;2024-01-11T11:56:02;27.92;;;18.67;;
51981;SDS011;37998;53.416;6.730;2024-01-11T11:58:29;32.05;;;18.63;;
51981;SDS011;37998;53.416;6.730;2024-01-11T12:00:57;33.55;;;17.55;;
51981;SDS011;37998;53.416;6.730;2024-01-11T12:03:34;31.95;;;18.15;;
51981;SDS011;37998;53.416;6.730;2024-01-11T12:06:03;34.97;;;19.15;;
51981;SDS011;37998;53.416;6.730;2024-01-11T12:08:33;27.70;;;17.45;;
51981;SDS011;37998;53.416;6.730;2024-01-11T12:10:59;32.00;;;18.88;;
51981;SDS011;37998;53.416;6.730;2024-01-11T12:13:25;28.73;;;19.20;;
51981;SDS011;37998;53.416;6.730;2024-01-11T12:15:52;40.03;;;19.05;;
51981;SDS011;37998;53.416;6.730;2024-01-11T12:18:18;36.63;;;18.60;;
51981;SDS011;37998;53.416;6.730;2024-01-11T12:20:44;30.17;;;17.98;;
51981;SDS011;37998;53.416;6.730;2024-01-11T12:23:10;33.35;;;17.45;;
51981;SDS011;37998;53.416;6.730;2024-01-11T12:25:39;33.97;;;17.17;;
51981;SDS011;37998;53.416;6.730;2024-01-11T12:28:06;30.52;;;18.02;;
51981;SDS011;37998;53.416;6.730;2024-01-11T12:30:32;29.20;;;17.90;;
51981;SDS011;37998;53.416;6.730;2024-01-11T12:32:58;30.73;;;18.00;;
51981;SDS011;37998;53.416;6.730;2024-01-11T12:35:26;34.92;;;18.00;;
51981;SDS011;37998;53.416;6.730;2024-01-11T12:37:53;28.73;;;18.35;;
51981;SDS011;37998;53.416;6.730;2024-01-11T12:40:35;33.47;;;19.10;;
51981;SDS011;37998;53.416;6.730;2024-01-11T12:43:05;33.00;;;19.20;;
51981;SDS011;37998;53.416;6.730;2024-01-11T12:45:33;37.92;;;19.17;;
51981;SDS011;37998;53.416;6.730;2024-01-11T12:48:00;35.92;;;18.20;;
51981;SDS011;37998;53.416;6.730;2024-01-11T12:50:27;39.67;;;19.25;;
51981;SDS011;37998;53.416;6.730;2024-01-11T12:53:09;34.38;;;18.42;;
51981;SDS011;37998;53.416;6.730;2024-01-11T12:55:45;31.30;;;18.13;;
51981;SDS011;37998;53.416;6.730;2024-01-11T12:58:12;32.40;;;18.48;;
51981;SDS011;37998;53.416;6.730;2024-01-11T13:00:38;32.05;;;18.23;;
51981;SDS011;37998;53.416;6.730;2024-01-11T13:03:07;37.53;;;19.55;;
51981;SDS011;37998;53.416;6.730;2024-01-11T13:05:35;32.60;;;18.35;;
51981;SDS011;37998;53.416;6.730;2024-01-11T13:08:10;35.15;;;19.58;;
51981;SDS011;37998;53.416;6.730;2024-01-11T13:10:36;32.13;;;17.50;;
51981;SDS011;37998;53.416;6.730;2024-01-11T13:13:03;36.20;;;19.30;;
51981;SDS011;37998;53.416;6.730;2024-01-11T13:15:30;42.47;;;19.67;;
51981;SDS011;37998;53.416;6.730;2024-01-11T13:17:59;36.15;;;19.08;;
51981;SDS011;37998;53.416;6.730;2024-01-11T13:20:26;39.05;;;22.65;;
51981;SDS011;37998;53.416;6.730;2024-01-11T13:22:57;32.85;;;17.88;;
51981;SDS011;37998;53.416;6.730;2024-01-11T13:25:41;28.23;;;16.42;;
51981;SDS011;37998;53.416;6.730;2024-01-11T13:28:07;35.70;;;18.30;;
51981;SDS011;37998;53.416;6.730;2024-01-11T13:30:34;35.10;;;17.30;;
51981;SDS011;37998;53.416;6.730;2024-01-11T13:33:01;36.80;;;18.38;;
51981;SDS011;37998;53.416;6.730;2024-01-11T13:35:27;43.45;;;18.42;;
51981;SDS011;37998;53.416;6.730;2024-01-11T13:37:53;27.83;;;16.38;;
51981;SDS011;37998;53.416;6.730;2024-01-11T13:40:19;28.15;;;16.63;;
51981;SDS011;37998;53.416;6.730;2024-01-11T13:42:47;30.35;;;16.13;;
51981;SDS011;37998;53.416;6.730;2024-01-11T13:45:13;31.67;;;15.35;;
51981;SDS011;37998;53.416;6.730;2024-01-11T13:47:38;32.35;;;14.27;;
51981;SDS011;37998;53.416;6.730;2024-01-11T13:50:04;33.35;;;15.57;;
51981;SDS011;37998;53.416;6.730;2024-01-11T13:52:31;30.85;;;14.38;;
51981;SDS011;37998;53.416;6.730;2024-01-11T13:54:56;40.17;;;15.35;;
51981;SDS011;37998;53.416;6.730;2024-01-11T13:57:22;33.92;;;14.85;;
51981;SDS011;37998;53.416;6.730;2024-01-11T13:59:48;43.05;;;16.92;;
51981;SDS011;37998;53.416;6.730;2024-01-11T14:02:16;34.22;;;16.80;;
51981;SDS011;37998;53.416;6.730;2024-01-11T14:04:41;30.98;;;15.77;;
51981;SDS011;37998;53.416;6.730;2024-01-11T14:07:07;31.00;;;15.95;;
51981;SDS011;37998;53.416;6.730;2024-01-11T14:09:33;35.75;;;16.35;;
51981;SDS011;37998;53.416;6.730;2024-01-11T14:11:59;31.50;;;15.85;;
51981;SDS011;37998;53.416;6.730;2024-01-11T14:14:25;33.80;;;17.33;;
51981;SDS011;37998;53.416;6.730;2024-01-11T14:16:50;33.65;;;17.05;;
51981;SDS011;37998;53.416;6.730;2024-01-11T14:19:16;38.03;;;19.27;;
51981;SDS011;37998;53.416;6.730;2024-01-11T14:21:42;31.67;;;16.83;;
51981;SDS011;37998;53.416;6.730;2024-01-11T14:24:08;31.55;;;16.73;;
51981;SDS011;37998;53.416;6.730;2024-01-11T14:26:34;38.30;;;16.88;;
51981;SDS011;37998;53.416;6.730;2024-01-11T14:29:00;32.60;;;15.80;;